Unidilla, Georgia
Current Conditions -  °F | °C
As of 11:55 PM on Saturday 20 Dec 2014 (Local Time) from KPXE Reporting Station
Haze Haze  
Wind Chill: 55°   Ceiling: 500
Heat Index: 55°   Visibility: 5mi
Dew Point: 51°   Wind: 7mph
Humidity: 88%   Direction: 80°E
Pressure: 30.18"   Gusts: NA
Location:  32.2533°N, 83.7537°W
Report Text: KPXE 210455Z AUTO 08006KT 5SM BR OVC005 13/11 A3018 RMK AO2 T01250106
Loading
Personal Weather Stations






























Interactive Weather Map New forecast layout! Learn more

10-Day Weather Forecast

Advertisements
Track Severe Weather on mobile